Rutland, VT (05701)

4:44 AM EDT on March 29, 2017 (GMT -0400)
Tom's north | | Change Station

Elev 636 ft 43.61 °N, 72.97 °W | Updated 48 seconds ago

Overcast
Overcast
35.8 °F
Feels Like 32 °F
N
4.5
Wind Variable Wind from NW
Gusts 6.9 mph

Today
High -- | Low -- °F
--% Chance of Precip.
Yesterday
High -- | Low -- °F
Precip. -- in
Pressure 30.03 in
Visibility 3.0 miles
Clouds Overcast 200 ft
Windchill 32 °F
Dew Point 32 °F
Humidity 88%
Rainfall 0.01 in
Snow Depth Not available.
6:38 AM 7:15 PM
New Moon, 2% visible
SPECI KRUT 290828Z AUTO 34006KT 3SM BR OVC002 01/01 A3003 RMK AO2 FZRANO $
Pressure 30.03 in
Visibility 3.0 miles
Clouds Overcast 200 ft
Windchill 32 °F
Dew Point 32 °F
Humidity 88%
Rainfall 0.01 in
Snow Depth Not available.
6:38 AM 7:15 PM
New Moon, 2% visible
SPECI KRUT 290828Z AUTO 34006KT 3SM BR OVC002 01/01 A3003 RMK AO2 FZRANO $

Get Severe Weather Alerts

Thanks for signing up!

Be on the lookout for a verification email in your inbox.

You'll start receiving the daily forecast at 8 AM.

×

10-Day Weather Forecast

Almanac

Astronomy

Mar. 29, 2017 Rise Set
Actual Time
Civil Twilight
Nautical Twilight
Astronomical Twilight
Moon
Length of Visible Light
Length of Day
Tomorrow will be .
, % of the Moon is Illuminated

Today's Extremes

State Highs State Lows

Community

WunderPhotos

Upload Photos

1,962,540 photos uploaded!

WunderBlog® & News

Nearby

Air Quality

  Air Quality AQ Index Pollutant
Not available.

Snow Depth

Station Depth Elevation

Earthquake Activity

City Distance Mag. Time & Date
Minimum magnitude displayed is 2.5.

Earthquake Activity

City Distance Mag. Time & Date
Minimum magnitude displayed is 2.5.

Coastal Water Temperatures

Place Temperature

Stations

Nearby Weather Stations

Station Location Temp. Windchill Dew Point Humidity Wind Precip. Elev Updated Type
                   

Watches & Warnings

There are currently no watches in effect.